Wauzeka, Wisconsin
Current Conditions -  °F | °C
As of 9:53 PM on Friday 24 Oct 2014 (Local Time) from KOVS Reporting Station
Haze Haze  
Wind Chill: 59°   Ceiling: 2900
Heat Index: 59°   Visibility: 6mi
Dew Point: 56°   Wind: 6mph
Humidity: 90%   Direction: 210°SSW
Pressure: 29.93"   Gusts: NA
Location:  43.09°N, 90.88°W
Report Text: KOVS 250253Z AUTO 21005KT 6SM BR OVC029 15/13 A2993 RMK AO2 SLP135 T01500133 53002
Loading
Personal Weather Stations






























Interactive Weather Map
Tropical Storm Tracking
New forecast layout! Learn more

10-Day Weather Forecast

Advertisements
Track Severe Weather on mobile